sensor_id;sensor_type;location;lat;lon;timestamp;P1;durP1;ratioP1;P2;durP2;ratioP2
485;SDS011;229;48.734;9.340;2022-09-16T00:02:14;9.25;;;6.25;;
485;SDS011;229;48.734;9.340;2022-09-16T00:04:43;12.15;;;6.40;;
485;SDS011;229;48.734;9.340;2022-09-16T00:07:10;8.68;;;6.72;;
485;SDS011;229;48.734;9.340;2022-09-16T00:09:38;9.77;;;6.32;;
485;SDS011;229;48.734;9.340;2022-09-16T00:12:05;13.55;;;6.85;;
485;SDS011;229;48.734;9.340;2022-09-16T00:14:32;9.57;;;6.53;;
485;SDS011;229;48.734;9.340;2022-09-16T00:16:59;9.30;;;6.20;;
485;SDS011;229;48.734;9.340;2022-09-16T00:19:26;10.85;;;7.20;;
485;SDS011;229;48.734;9.340;2022-09-16T00:21:55;10.93;;;7.05;;
485;SDS011;229;48.734;9.340;2022-09-16T00:24:22;9.50;;;6.45;;
485;SDS011;229;48.734;9.340;2022-09-16T00:26:49;12.27;;;6.97;;
485;SDS011;229;48.734;9.340;2022-09-16T00:29:16;9.75;;;6.90;;
485;SDS011;229;48.734;9.340;2022-09-16T00:31:44;14.50;;;6.30;;
485;SDS011;229;48.734;9.340;2022-09-16T00:34:11;11.43;;;6.50;;
485;SDS011;229;48.734;9.340;2022-09-16T00:36:38;9.20;;;6.80;;
485;SDS011;229;48.734;9.340;2022-09-16T00:39:06;8.63;;;6.20;;
485;SDS011;229;48.734;9.340;2022-09-16T00:41:34;10.10;;;6.90;;
485;SDS011;229;48.734;9.340;2022-09-16T00:44:02;12.05;;;7.15;;
485;SDS011;229;48.734;9.340;2022-09-16T00:46:31;11.57;;;7.18;;
485;SDS011;229;48.734;9.340;2022-09-16T00:49:02;10.30;;;6.80;;
485;SDS011;229;48.734;9.340;2022-09-16T00:51:29;11.02;;;7.10;;
485;SDS011;229;48.734;9.340;2022-09-16T00:53:57;8.55;;;6.57;;
485;SDS011;229;48.734;9.340;2022-09-16T00:56:28;9.75;;;7.32;;
485;SDS011;229;48.734;9.340;2022-09-16T00:58:58;10.38;;;7.00;;
485;SDS011;229;48.734;9.340;2022-09-16T01:01:28;15.43;;;7.65;;
485;SDS011;229;48.734;9.340;2022-09-16T01:03:57;10.18;;;6.90;;
485;SDS011;229;48.734;9.340;2022-09-16T01:06:25;10.75;;;7.15;;
485;SDS011;229;48.734;9.340;2022-09-16T01:08:53;9.13;;;7.00;;
485;SDS011;229;48.734;9.340;2022-09-16T01:11:21;10.93;;;7.40;;
485;SDS011;229;48.734;9.340;2022-09-16T01:13:50;8.80;;;7.40;;
485;SDS011;229;48.734;9.340;2022-09-16T01:16:18;9.18;;;7.45;;
485;SDS011;229;48.734;9.340;2022-09-16T01:18:51;10.65;;;6.88;;
485;SDS011;229;48.734;9.340;2022-09-16T01:21:22;10.57;;;6.97;;
485;SDS011;229;48.734;9.340;2022-09-16T01:26:44;9.25;;;6.50;;
485;SDS011;229;48.734;9.340;2022-09-16T01:32:05;13.57;;;7.20;;
485;SDS011;229;48.734;9.340;2022-09-16T01:34:39;16.58;;;7.30;;
485;SDS011;229;48.734;9.340;2022-09-16T01:37:09;9.30;;;7.10;;
485;SDS011;229;48.734;9.340;2022-09-16T01:39:38;9.68;;;7.22;;
485;SDS011;229;48.734;9.340;2022-09-16T01:42:12;9.63;;;7.30;;
485;SDS011;229;48.734;9.340;2022-09-16T01:44:42;12.23;;;7.72;;
485;SDS011;229;48.734;9.340;2022-09-16T01:47:16;11.88;;;7.18;;
485;SDS011;229;48.734;9.340;2022-09-16T01:49:49;10.75;;;8.27;;
485;SDS011;229;48.734;9.340;2022-09-16T01:52:22;14.10;;;7.53;;
485;SDS011;229;48.734;9.340;2022-09-16T01:54:52;11.43;;;7.82;;
485;SDS011;229;48.734;9.340;2022-09-16T01:57:22;11.15;;;7.18;;
485;SDS011;229;48.734;9.340;2022-09-16T01:59:53;8.35;;;6.65;;
485;SDS011;229;48.734;9.340;2022-09-16T02:02:23;16.63;;;8.35;;
485;SDS011;229;48.734;9.340;2022-09-16T02:04:53;7.88;;;6.43;;
485;SDS011;229;48.734;9.340;2022-09-16T02:07:21;13.27;;;7.47;;
485;SDS011;229;48.734;9.340;2022-09-16T02:09:50;8.57;;;6.63;;
485;SDS011;229;48.734;9.340;2022-09-16T02:12:19;11.40;;;8.07;;
485;SDS011;229;48.734;9.340;2022-09-16T02:14:48;9.45;;;6.75;;
485;SDS011;229;48.734;9.340;2022-09-16T02:17:17;11.48;;;7.38;;
485;SDS011;229;48.734;9.340;2022-09-16T02:19:48;8.30;;;6.57;;
485;SDS011;229;48.734;9.340;2022-09-16T02:22:18;10.77;;;7.22;;
485;SDS011;229;48.734;9.340;2022-09-16T02:24:46;9.15;;;6.72;;
485;SDS011;229;48.734;9.340;2022-09-16T02:27:14;12.70;;;7.32;;
485;SDS011;229;48.734;9.340;2022-09-16T02:29:43;11.05;;;7.30;;
485;SDS011;229;48.734;9.340;2022-09-16T02:32:10;10.45;;;7.18;;
485;SDS011;229;48.734;9.340;2022-09-16T02:34:38;10.85;;;8.07;;
485;SDS011;229;48.734;9.340;2022-09-16T02:37:09;13.23;;;7.55;;
485;SDS011;229;48.734;9.340;2022-09-16T02:39:38;10.38;;;7.80;;
485;SDS011;229;48.734;9.340;2022-09-16T02:42:06;14.38;;;8.70;;
485;SDS011;229;48.734;9.340;2022-09-16T02:44:33;10.65;;;7.85;;
485;SDS011;229;48.734;9.340;2022-09-16T02:47:04;12.95;;;8.45;;
485;SDS011;229;48.734;9.340;2022-09-16T02:49:36;10.82;;;8.00;;
485;SDS011;229;48.734;9.340;2022-09-16T02:52:10;11.88;;;7.78;;
485;SDS011;229;48.734;9.340;2022-09-16T02:54:40;12.43;;;7.57;;
485;SDS011;229;48.734;9.340;2022-09-16T02:57:10;9.93;;;7.38;;
485;SDS011;229;48.734;9.340;2022-09-16T02:59:38;11.30;;;7.05;;
485;SDS011;229;48.734;9.340;2022-09-16T03:02:05;9.38;;;6.90;;
485;SDS011;229;48.734;9.340;2022-09-16T03:04:32;11.40;;;7.60;;
485;SDS011;229;48.734;9.340;2022-09-16T03:07:00;11.75;;;8.00;;
485;SDS011;229;48.734;9.340;2022-09-16T03:09:30;9.63;;;7.15;;
485;SDS011;229;48.734;9.340;2022-09-16T03:12:04;10.35;;;7.15;;
485;SDS011;229;48.734;9.340;2022-09-16T03:17:18;9.68;;;8.00;;
485;SDS011;229;48.734;9.340;2022-09-16T03:19:50;11.38;;;7.55;;
485;SDS011;229;48.734;9.340;2022-09-16T03:22:23;18.20;;;7.55;;
485;SDS011;229;48.734;9.340;2022-09-16T03:24:55;11.45;;;7.95;;
485;SDS011;229;48.734;9.340;2022-09-16T03:27:26;12.25;;;7.97;;
485;SDS011;229;48.734;9.340;2022-09-16T03:29:56;15.10;;;8.23;;
485;SDS011;229;48.734;9.340;2022-09-16T03:32:28;12.57;;;8.07;;
485;SDS011;229;48.734;9.340;2022-09-16T03:34:58;11.98;;;7.72;;
485;SDS011;229;48.734;9.340;2022-09-16T03:37:27;13.80;;;7.45;;
485;SDS011;229;48.734;9.340;2022-09-16T03:39:57;12.40;;;8.13;;
485;SDS011;229;48.734;9.340;2022-09-16T03:42:25;11.45;;;7.65;;
485;SDS011;229;48.734;9.340;2022-09-16T03:44:53;12.23;;;8.15;;
485;SDS011;229;48.734;9.340;2022-09-16T03:47:20;10.65;;;7.78;;
485;SDS011;229;48.734;9.340;2022-09-16T03:49:47;10.65;;;8.40;;
485;SDS011;229;48.734;9.340;2022-09-16T03:52:15;12.23;;;8.45;;
485;SDS011;229;48.734;9.340;2022-09-16T03:54:43;13.73;;;8.30;;
485;SDS011;229;48.734;9.340;2022-09-16T03:57:12;10.20;;;8.02;;
485;SDS011;229;48.734;9.340;2022-09-16T03:59:39;13.98;;;7.80;;
485;SDS011;229;48.734;9.340;2022-09-16T04:02:06;9.32;;;7.18;;
485;SDS011;229;48.734;9.340;2022-09-16T04:04:33;13.82;;;7.78;;
485;SDS011;229;48.734;9.340;2022-09-16T04:07:01;11.00;;;8.07;;
485;SDS011;229;48.734;9.340;2022-09-16T04:09:28;11.23;;;7.65;;
485;SDS011;229;48.734;9.340;2022-09-16T04:11:55;14.98;;;7.88;;
485;SDS011;229;48.734;9.340;2022-09-16T04:14:23;12.02;;;7.97;;
485;SDS011;229;48.734;9.340;2022-09-16T04:16:51;12.30;;;8.50;;
485;SDS011;229;48.734;9.340;2022-09-16T04:19:18;11.73;;;7.85;;
485;SDS011;229;48.734;9.340;2022-09-16T04:21:45;13.13;;;7.95;;
485;SDS011;229;48.734;9.340;2022-09-16T04:24:12;10.98;;;8.35;;
485;SDS011;229;48.734;9.340;2022-09-16T04:26:39;11.00;;;7.03;;
485;SDS011;229;48.734;9.340;2022-09-16T04:29:07;11.02;;;7.57;;
485;SDS011;229;48.734;9.340;2022-09-16T04:31:35;8.85;;;6.70;;
485;SDS011;229;48.734;9.340;2022-09-16T04:34:03;11.80;;;7.18;;
485;SDS011;229;48.734;9.340;2022-09-16T04:36:30;13.25;;;6.50;;
485;SDS011;229;48.734;9.340;2022-09-16T04:38:58;11.98;;;7.45;;
485;SDS011;229;48.734;9.340;2022-09-16T04:41:25;14.68;;;6.75;;
485;SDS011;229;48.734;9.340;2022-09-16T04:43:53;9.35;;;6.00;;
485;SDS011;229;48.734;9.340;2022-09-16T04:46:21;6.90;;;6.18;;
485;SDS011;229;48.734;9.340;2022-09-16T04:48:50;8.60;;;5.40;;
485;SDS011;229;48.734;9.340;2022-09-16T04:51:17;12.27;;;5.32;;
485;SDS011;229;48.734;9.340;2022-09-16T04:53:46;10.27;;;6.03;;
485;SDS011;229;48.734;9.340;2022-09-16T04:56:14;9.43;;;6.65;;
485;SDS011;229;48.734;9.340;2022-09-16T04:58:41;7.72;;;5.90;;
485;SDS011;229;48.734;9.340;2022-09-16T05:01:10;11.00;;;6.80;;
485;SDS011;229;48.734;9.340;2022-09-16T05:03:38;11.52;;;6.95;;
485;SDS011;229;48.734;9.340;2022-09-16T05:06:08;11.27;;;6.68;;
485;SDS011;229;48.734;9.340;2022-09-16T05:08:35;10.70;;;7.38;;
485;SDS011;229;48.734;9.340;2022-09-16T05:11:03;11.23;;;7.10;;
485;SDS011;229;48.734;9.340;2022-09-16T05:13:31;10.25;;;6.35;;
485;SDS011;229;48.734;9.340;2022-09-16T05:16:02;11.45;;;6.35;;
485;SDS011;229;48.734;9.340;2022-09-16T05:18:29;8.23;;;6.00;;
485;SDS011;229;48.734;9.340;2022-09-16T05:20:57;12.50;;;7.90;;
485;SDS011;229;48.734;9.340;2022-09-16T05:23:26;9.20;;;6.50;;
485;SDS011;229;48.734;9.340;2022-09-16T05:25:54;9.95;;;6.10;;
485;SDS011;229;48.734;9.340;2022-09-16T05:28:21;7.63;;;5.85;;
485;SDS011;229;48.734;9.340;2022-09-16T05:30:48;7.75;;;6.00;;
485;SDS011;229;48.734;9.340;2022-09-16T05:33:15;9.57;;;5.32;;
485;SDS011;229;48.734;9.340;2022-09-16T05:35:42;6.43;;;5.10;;
485;SDS011;229;48.734;9.340;2022-09-16T05:38:10;9.45;;;5.20;;
485;SDS011;229;48.734;9.340;2022-09-16T05:40:39;8.63;;;5.22;;
485;SDS011;229;48.734;9.340;2022-09-16T05:43:07;9.32;;;5.35;;
485;SDS011;229;48.734;9.340;2022-09-16T05:45:35;6.68;;;5.07;;
485;SDS011;229;48.734;9.340;2022-09-16T05:48:02;8.80;;;5.30;;
485;SDS011;229;48.734;9.340;2022-09-16T05:50:29;7.80;;;4.55;;
485;SDS011;229;48.734;9.340;2022-09-16T05:52:57;6.80;;;5.15;;
485;SDS011;229;48.734;9.340;2022-09-16T05:55:24;11.63;;;4.68;;
485;SDS011;229;48.734;9.340;2022-09-16T05:57:53;7.40;;;5.32;;
485;SDS011;229;48.734;9.340;2022-09-16T06:00:20;9.93;;;5.13;;
485;SDS011;229;48.734;9.340;2022-09-16T06:02:47;7.03;;;4.72;;
485;SDS011;229;48.734;9.340;2022-09-16T06:05:14;10.60;;;4.97;;
485;SDS011;229;48.734;9.340;2022-09-16T06:07:41;5.93;;;4.47;;
485;SDS011;229;48.734;9.340;2022-09-16T06:10:09;5.65;;;4.63;;
485;SDS011;229;48.734;9.340;2022-09-16T06:12:36;5.93;;;4.68;;
485;SDS011;229;48.734;9.340;2022-09-16T06:15:05;7.28;;;4.70;;
485;SDS011;229;48.734;9.340;2022-09-16T06:17:32;8.38;;;5.20;;
485;SDS011;229;48.734;9.340;2022-09-16T06:19:59;8.80;;;5.28;;
485;SDS011;229;48.734;9.340;2022-09-16T06:22:28;10.80;;;5.55;;
485;SDS011;229;48.734;9.340;2022-09-16T06:24:56;8.30;;;6.15;;
485;SDS011;229;48.734;9.340;2022-09-16T06:27:23;7.53;;;5.28;;
485;SDS011;229;48.734;9.340;2022-09-16T06:29:50;7.40;;;4.95;;
485;SDS011;229;48.734;9.340;2022-09-16T06:32:19;14.02;;;5.70;;
485;SDS011;229;48.734;9.340;2022-09-16T06:34:46;10.25;;;5.03;;
485;SDS011;229;48.734;9.340;2022-09-16T06:37:14;6.18;;;5.15;;
485;SDS011;229;48.734;9.340;2022-09-16T06:39:41;6.72;;;4.75;;
485;SDS011;229;48.734;9.340;2022-09-16T06:42:08;8.80;;;5.20;;
485;SDS011;229;48.734;9.340;2022-09-16T06:44:36;12.10;;;5.30;;
485;SDS011;229;48.734;9.340;2022-09-16T06:47:03;9.48;;;5.10;;
485;SDS011;229;48.734;9.340;2022-09-16T06:49:31;8.35;;;5.75;;
485;SDS011;229;48.734;9.340;2022-09-16T06:51:58;6.13;;;4.70;;
485;SDS011;229;48.734;9.340;2022-09-16T06:54:25;8.98;;;5.05;;
485;SDS011;229;48.734;9.340;2022-09-16T06:56:53;7.38;;;5.50;;
485;SDS011;229;48.734;9.340;2022-09-16T06:59:20;6.43;;;5.18;;
485;SDS011;229;48.734;9.340;2022-09-16T07:01:47;12.93;;;6.38;;
485;SDS011;229;48.734;9.340;2022-09-16T07:04:16;11.13;;;6.30;;
485;SDS011;229;48.734;9.340;2022-09-16T07:06:44;8.77;;;5.40;;
485;SDS011;229;48.734;9.340;2022-09-16T07:09:14;8.80;;;5.90;;
485;SDS011;229;48.734;9.340;2022-09-16T07:11:41;11.00;;;6.07;;
485;SDS011;229;48.734;9.340;2022-09-16T07:14:08;9.18;;;5.85;;
485;SDS011;229;48.734;9.340;2022-09-16T07:16:35;8.65;;;5.40;;
485;SDS011;229;48.734;9.340;2022-09-16T07:19:02;7.15;;;6.40;;
485;SDS011;229;48.734;9.340;2022-09-16T07:21:30;12.80;;;7.20;;
485;SDS011;229;48.734;9.340;2022-09-16T07:23:59;12.38;;;7.20;;
485;SDS011;229;48.734;9.340;2022-09-16T07:26:27;11.07;;;5.68;;
485;SDS011;229;48.734;9.340;2022-09-16T07:28:57;18.85;;;6.28;;
485;SDS011;229;48.734;9.340;2022-09-16T07:31:24;10.65;;;5.88;;
485;SDS011;229;48.734;9.340;2022-09-16T07:33:53;10.35;;;5.65;;
485;SDS011;229;48.734;9.340;2022-09-16T07:36:21;9.18;;;5.72;;
485;SDS011;229;48.734;9.340;2022-09-16T07:38:49;11.07;;;4.90;;
485;SDS011;229;48.734;9.340;2022-09-16T07:41:19;8.65;;;5.70;;
485;SDS011;229;48.734;9.340;2022-09-16T07:43:46;15.10;;;5.55;;
485;SDS011;229;48.734;9.340;2022-09-16T07:46:15;7.57;;;4.90;;
485;SDS011;229;48.734;9.340;2022-09-16T07:48:43;7.55;;;4.70;;
485;SDS011;229;48.734;9.340;2022-09-16T07:51:10;8.18;;;4.07;;
485;SDS011;229;48.734;9.340;2022-09-16T07:53:38;8.10;;;4.47;;
485;SDS011;229;48.734;9.340;2022-09-16T07:56:07;6.43;;;4.00;;
485;SDS011;229;48.734;9.340;2022-09-16T07:58:36;6.85;;;4.75;;
485;SDS011;229;48.734;9.340;2022-09-16T08:01:03;9.55;;;5.10;;
485;SDS011;229;48.734;9.340;2022-09-16T08:03:31;8.18;;;4.45;;
485;SDS011;229;48.734;9.340;2022-09-16T08:05:59;10.82;;;5.38;;
485;SDS011;229;48.734;9.340;2022-09-16T08:08:27;8.43;;;5.30;;
485;SDS011;229;48.734;9.340;2022-09-16T08:10:55;6.82;;;5.10;;
485;SDS011;229;48.734;9.340;2022-09-16T08:13:23;8.23;;;5.10;;
485;SDS011;229;48.734;9.340;2022-09-16T08:15:51;8.48;;;5.47;;
485;SDS011;229;48.734;9.340;2022-09-16T08:18:19;8.43;;;4.78;;
485;SDS011;229;48.734;9.340;2022-09-16T08:20:46;7.20;;;4.85;;
485;SDS011;229;48.734;9.340;2022-09-16T08:23:13;8.52;;;5.18;;
485;SDS011;229;48.734;9.340;2022-09-16T08:25:40;6.45;;;5.00;;
485;SDS011;229;48.734;9.340;2022-09-16T08:28:11;6.53;;;4.72;;
485;SDS011;229;48.734;9.340;2022-09-16T08:30:38;7.55;;;4.70;;
485;SDS011;229;48.734;9.340;2022-09-16T08:33:07;5.65;;;4.50;;
485;SDS011;229;48.734;9.340;2022-09-16T08:35:34;5.25;;;4.60;;
485;SDS011;229;48.734;9.340;2022-09-16T08:38:02;6.55;;;5.05;;
485;SDS011;229;48.734;9.340;2022-09-16T08:40:32;5.82;;;4.10;;
485;SDS011;229;48.734;9.340;2022-09-16T08:43:02;10.23;;;5.10;;
485;SDS011;229;48.734;9.340;2022-09-16T08:45:31;12.38;;;4.88;;
485;SDS011;229;48.734;9.340;2022-09-16T08:48:11;6.45;;;5.13;;
485;SDS011;229;48.734;9.340;2022-09-16T08:50:40;8.43;;;5.03;;
485;SDS011;229;48.734;9.340;2022-09-16T08:53:10;5.65;;;4.43;;
485;SDS011;229;48.734;9.340;2022-09-16T08:55:39;5.30;;;4.45;;
485;SDS011;229;48.734;9.340;2022-09-16T08:58:12;5.28;;;4.82;;
485;SDS011;229;48.734;9.340;2022-09-16T09:00:40;5.05;;;4.80;;
485;SDS011;229;48.734;9.340;2022-09-16T09:03:12;6.60;;;5.47;;
485;SDS011;229;48.734;9.340;2022-09-16T09:05:42;8.27;;;5.80;;
485;SDS011;229;48.734;9.340;2022-09-16T09:08:13;10.02;;;5.95;;
485;SDS011;229;48.734;9.340;2022-09-16T09:10:45;10.82;;;5.90;;
485;SDS011;229;48.734;9.340;2022-09-16T09:13:19;9.40;;;5.80;;
485;SDS011;229;48.734;9.340;2022-09-16T09:15:49;7.70;;;5.90;;
485;SDS011;229;48.734;9.340;2022-09-16T09:18:25;9.48;;;5.80;;
485;SDS011;229;48.734;9.340;2022-09-16T09:21:07;9.05;;;5.70;;
485;SDS011;229;48.734;9.340;2022-09-16T09:23:43;10.57;;;5.93;;
485;SDS011;229;48.734;9.340;2022-09-16T09:26:17;6.47;;;5.43;;
485;SDS011;229;48.734;9.340;2022-09-16T09:28:57;8.60;;;6.03;;
485;SDS011;229;48.734;9.340;2022-09-16T09:31:29;10.40;;;6.20;;
485;SDS011;229;48.734;9.340;2022-09-16T09:34:00;10.93;;;7.50;;
485;SDS011;229;48.734;9.340;2022-09-16T09:36:35;11.90;;;7.30;;
485;SDS011;229;48.734;9.340;2022-09-16T09:39:10;9.55;;;7.13;;
485;SDS011;229;48.734;9.340;2022-09-16T09:41:42;15.30;;;7.10;;
485;SDS011;229;48.734;9.340;2022-09-16T09:44:18;11.85;;;6.60;;
485;SDS011;229;48.734;9.340;2022-09-16T09:46:49;10.32;;;6.97;;
485;SDS011;229;48.734;9.340;2022-09-16T09:49:21;8.82;;;7.10;;
485;SDS011;229;48.734;9.340;2022-09-16T09:51:53;13.02;;;6.90;;
485;SDS011;229;48.734;9.340;2022-09-16T09:54:24;7.90;;;6.40;;
485;SDS011;229;48.734;9.340;2022-09-16T09:56:54;11.18;;;7.07;;
485;SDS011;229;48.734;9.340;2022-09-16T09:59:24;8.10;;;6.72;;
485;SDS011;229;48.734;9.340;2022-09-16T10:01:53;8.20;;;7.03;;
485;SDS011;229;48.734;9.340;2022-09-16T10:04:22;10.68;;;7.25;;
485;SDS011;229;48.734;9.340;2022-09-16T10:06:50;13.45;;;7.18;;
485;SDS011;229;48.734;9.340;2022-09-16T10:09:18;7.53;;;6.30;;
485;SDS011;229;48.734;9.340;2022-09-16T10:11:47;12.10;;;7.82;;
485;SDS011;229;48.734;9.340;2022-09-16T10:14:22;10.95;;;7.63;;
485;SDS011;229;48.734;9.340;2022-09-16T10:16:49;9.25;;;6.95;;
485;SDS011;229;48.734;9.340;2022-09-16T10:19:18;10.80;;;6.45;;
485;SDS011;229;48.734;9.340;2022-09-16T10:21:47;10.52;;;7.22;;
485;SDS011;229;48.734;9.340;2022-09-16T10:24:26;7.93;;;5.80;;
485;SDS011;229;48.734;9.340;2022-09-16T10:26:54;13.52;;;7.25;;
485;SDS011;229;48.734;9.340;2022-09-16T10:29:21;9.85;;;7.72;;
485;SDS011;229;48.734;9.340;2022-09-16T10:31:48;9.32;;;6.75;;
485;SDS011;229;48.734;9.340;2022-09-16T10:34:17;11.35;;;6.30;;
485;SDS011;229;48.734;9.340;2022-09-16T10:36:56;11.30;;;6.95;;
485;SDS011;229;48.734;9.340;2022-09-16T10:39:24;10.60;;;5.90;;
485;SDS011;229;48.734;9.340;2022-09-16T10:41:52;7.05;;;5.53;;
485;SDS011;229;48.734;9.340;2022-09-16T10:44:20;6.65;;;4.90;;
485;SDS011;229;48.734;9.340;2022-09-16T10:46:50;5.95;;;4.78;;
485;SDS011;229;48.734;9.340;2022-09-16T10:49:19;7.47;;;5.38;;
485;SDS011;229;48.734;9.340;2022-09-16T10:51:47;4.70;;;3.83;;
485;SDS011;229;48.734;9.340;2022-09-16T10:54:22;6.50;;;4.38;;
485;SDS011;229;48.734;9.340;2022-09-16T10:56:50;7.10;;;3.85;;
485;SDS011;229;48.734;9.340;2022-09-16T10:59:17;5.43;;;4.43;;
485;SDS011;229;48.734;9.340;2022-09-16T11:01:45;7.57;;;3.97;;
485;SDS011;229;48.734;9.340;2022-09-16T11:04:30;4.50;;;3.95;;
485;SDS011;229;48.734;9.340;2022-09-16T11:07:03;5.15;;;4.25;;
485;SDS011;229;48.734;9.340;2022-09-16T11:09:34;6.32;;;4.63;;
485;SDS011;229;48.734;9.340;2022-09-16T11:14:50;5.55;;;4.45;;
485;SDS011;229;48.734;9.340;2022-09-16T11:17:28;5.53;;;4.57;;
485;SDS011;229;48.734;9.340;2022-09-16T11:20:08;8.13;;;5.45;;
485;SDS011;229;48.734;9.340;2022-09-16T11:22:41;5.35;;;4.63;;
485;SDS011;229;48.734;9.340;2022-09-16T11:28:01;10.68;;;5.30;;
485;SDS011;229;48.734;9.340;2022-09-16T11:30:32;5.05;;;4.05;;
485;SDS011;229;48.734;9.340;2022-09-16T11:33:05;5.00;;;4.70;;
485;SDS011;229;48.734;9.340;2022-09-16T11:38:20;6.22;;;4.22;;
485;SDS011;229;48.734;9.340;2022-09-16T11:40:51;8.48;;;4.15;;
485;SDS011;229;48.734;9.340;2022-09-16T11:43:40;6.43;;;4.15;;
485;SDS011;229;48.734;9.340;2022-09-16T11:46:12;6.70;;;4.70;;
485;SDS011;229;48.734;9.340;2022-09-16T11:48:46;5.10;;;4.80;;
485;SDS011;229;48.734;9.340;2022-09-16T11:51:19;5.28;;;4.60;;
485;SDS011;229;48.734;9.340;2022-09-16T11:54:00;6.00;;;4.55;;
485;SDS011;229;48.734;9.340;2022-09-16T11:56:32;8.13;;;4.95;;
485;SDS011;229;48.734;9.340;2022-09-16T11:59:02;6.25;;;4.00;;
485;SDS011;229;48.734;9.340;2022-09-16T12:01:34;4.35;;;4.05;;
485;SDS011;229;48.734;9.340;2022-09-16T12:04:03;6.72;;;3.90;;
485;SDS011;229;48.734;9.340;2022-09-16T12:06:35;9.00;;;6.28;;
485;SDS011;229;48.734;9.340;2022-09-16T12:09:09;6.65;;;4.40;;
485;SDS011;229;48.734;9.340;2022-09-16T12:11:39;6.30;;;4.10;;
485;SDS011;229;48.734;9.340;2022-09-16T12:14:09;7.00;;;4.25;;
485;SDS011;229;48.734;9.340;2022-09-16T12:16:40;5.32;;;4.50;;
485;SDS011;229;48.734;9.340;2022-09-16T12:19:10;6.22;;;4.05;;
485;SDS011;229;48.734;9.340;2022-09-16T12:21:39;7.72;;;4.50;;
485;SDS011;229;48.734;9.340;2022-09-16T12:24:10;6.05;;;4.38;;
485;SDS011;229;48.734;9.340;2022-09-16T12:26:40;5.75;;;4.18;;
485;SDS011;229;48.734;9.340;2022-09-16T12:29:10;6.00;;;4.53;;
485;SDS011;229;48.734;9.340;2022-09-16T12:31:39;5.15;;;3.72;;
485;SDS011;229;48.734;9.340;2022-09-16T12:34:09;3.78;;;3.58;;
485;SDS011;229;48.734;9.340;2022-09-16T12:36:38;3.53;;;3.30;;
485;SDS011;229;48.734;9.340;2022-09-16T12:39:07;5.30;;;3.88;;
485;SDS011;229;48.734;9.340;2022-09-16T12:41:44;5.75;;;4.30;;
485;SDS011;229;48.734;9.340;2022-09-16T12:44:23;5.28;;;4.10;;
485;SDS011;229;48.734;9.340;2022-09-16T12:46:58;7.32;;;3.97;;
485;SDS011;229;48.734;9.340;2022-09-16T12:52:21;6.10;;;5.18;;
485;SDS011;229;48.734;9.340;2022-09-16T12:54:56;6.88;;;6.50;;
485;SDS011;229;48.734;9.340;2022-09-16T12:57:33;5.13;;;4.80;;
485;SDS011;229;48.734;9.340;2022-09-16T13:00:12;5.70;;;4.97;;
485;SDS011;229;48.734;9.340;2022-09-16T13:02:41;5.20;;;4.47;;
485;SDS011;229;48.734;9.340;2022-09-16T13:05:11;5.50;;;4.93;;
485;SDS011;229;48.734;9.340;2022-09-16T13:07:40;5.30;;;4.70;;
485;SDS011;229;48.734;9.340;2022-09-16T13:10:07;6.20;;;5.07;;
485;SDS011;229;48.734;9.340;2022-09-16T13:12:47;5.55;;;5.25;;
485;SDS011;229;48.734;9.340;2022-09-16T13:15:22;5.80;;;4.90;;
485;SDS011;229;48.734;9.340;2022-09-16T13:17:50;6.07;;;5.10;;
485;SDS011;229;48.734;9.340;2022-09-16T13:20:18;5.60;;;4.40;;
485;SDS011;229;48.734;9.340;2022-09-16T13:22:48;4.00;;;3.80;;
485;SDS011;229;48.734;9.340;2022-09-16T13:25:20;5.28;;;5.03;;
485;SDS011;229;48.734;9.340;2022-09-16T13:27:55;5.47;;;4.93;;
485;SDS011;229;48.734;9.340;2022-09-16T13:30:30;4.57;;;4.30;;
485;SDS011;229;48.734;9.340;2022-09-16T13:33:01;5.43;;;4.80;;
485;SDS011;229;48.734;9.340;2022-09-16T13:35:36;4.47;;;4.10;;
485;SDS011;229;48.734;9.340;2022-09-16T13:38:10;5.20;;;4.70;;
485;SDS011;229;48.734;9.340;2022-09-16T13:40:51;4.70;;;4.40;;
485;SDS011;229;48.734;9.340;2022-09-16T13:43:28;4.80;;;4.50;;
485;SDS011;229;48.734;9.340;2022-09-16T13:46:03;5.22;;;4.43;;
485;SDS011;229;48.734;9.340;2022-09-16T13:48:33;7.78;;;4.55;;
485;SDS011;229;48.734;9.340;2022-09-16T13:51:01;5.88;;;5.00;;
485;SDS011;229;48.734;9.340;2022-09-16T13:53:32;6.65;;;4.72;;
485;SDS011;229;48.734;9.340;2022-09-16T13:56:09;10.40;;;5.63;;
485;SDS011;229;48.734;9.340;2022-09-16T13:58:43;5.93;;;5.40;;
485;SDS011;229;48.734;9.340;2022-09-16T14:01:17;5.63;;;5.13;;
485;SDS011;229;48.734;9.340;2022-09-16T14:03:50;5.40;;;4.75;;
485;SDS011;229;48.734;9.340;2022-09-16T14:06:31;8.60;;;5.95;;
485;SDS011;229;48.734;9.340;2022-09-16T14:09:06;5.20;;;4.90;;
485;SDS011;229;48.734;9.340;2022-09-16T14:11:37;6.47;;;4.90;;
485;SDS011;229;48.734;9.340;2022-09-16T14:14:08;5.50;;;5.20;;
485;SDS011;229;48.734;9.340;2022-09-16T14:16:38;4.93;;;4.63;;
485;SDS011;229;48.734;9.340;2022-09-16T14:19:06;5.50;;;5.20;;
485;SDS011;229;48.734;9.340;2022-09-16T14:21:34;6.07;;;5.07;;
485;SDS011;229;48.734;9.340;2022-09-16T14:24:06;7.93;;;5.75;;
485;SDS011;229;48.734;9.340;2022-09-16T14:26:33;10.15;;;5.38;;
485;SDS011;229;48.734;9.340;2022-09-16T14:29:01;5.50;;;5.23;;
485;SDS011;229;48.734;9.340;2022-09-16T14:31:30;4.85;;;4.55;;
485;SDS011;229;48.734;9.340;2022-09-16T14:33:58;5.85;;;4.75;;
485;SDS011;229;48.734;9.340;2022-09-16T14:36:29;5.70;;;5.43;;
485;SDS011;229;48.734;9.340;2022-09-16T14:38:57;5.18;;;4.90;;
485;SDS011;229;48.734;9.340;2022-09-16T14:41:25;5.73;;;5.43;;
485;SDS011;229;48.734;9.340;2022-09-16T14:43:55;5.97;;;5.68;;
485;SDS011;229;48.734;9.340;2022-09-16T14:46:24;6.57;;;5.30;;
485;SDS011;229;48.734;9.340;2022-09-16T14:48:53;4.90;;;4.60;;
485;SDS011;229;48.734;9.340;2022-09-16T14:51:20;6.53;;;4.72;;
485;SDS011;229;48.734;9.340;2022-09-16T14:53:52;8.45;;;5.35;;
485;SDS011;229;48.734;9.340;2022-09-16T14:56:21;6.22;;;5.88;;
485;SDS011;229;48.734;9.340;2022-09-16T14:58:48;5.40;;;5.10;;
485;SDS011;229;48.734;9.340;2022-09-16T15:01:17;5.70;;;5.20;;
485;SDS011;229;48.734;9.340;2022-09-16T15:03:46;5.30;;;5.00;;
485;SDS011;229;48.734;9.340;2022-09-16T15:06:16;5.40;;;5.10;;
485;SDS011;229;48.734;9.340;2022-09-16T15:08:45;4.97;;;4.68;;
485;SDS011;229;48.734;9.340;2022-09-16T15:11:13;5.40;;;4.90;;
485;SDS011;229;48.734;9.340;2022-09-16T15:13:43;6.28;;;5.35;;
485;SDS011;229;48.734;9.340;2022-09-16T15:16:11;13.88;;;5.50;;
485;SDS011;229;48.734;9.340;2022-09-16T15:18:40;5.68;;;4.50;;
485;SDS011;229;48.734;9.340;2022-09-16T15:21:09;6.38;;;5.00;;
485;SDS011;229;48.734;9.340;2022-09-16T15:23:39;6.45;;;4.93;;
485;SDS011;229;48.734;9.340;2022-09-16T15:26:14;4.72;;;4.43;;
485;SDS011;229;48.734;9.340;2022-09-16T15:28:49;4.78;;;4.47;;
485;SDS011;229;48.734;9.340;2022-09-16T15:31:24;5.60;;;5.30;;
485;SDS011;229;48.734;9.340;2022-09-16T15:33:52;6.20;;;5.82;;
485;SDS011;229;48.734;9.340;2022-09-16T15:36:30;5.05;;;4.78;;
485;SDS011;229;48.734;9.340;2022-09-16T15:38:59;5.75;;;5.47;;
485;SDS011;229;48.734;9.340;2022-09-16T15:41:26;8.45;;;4.72;;
485;SDS011;229;48.734;9.340;2022-09-16T15:43:54;5.10;;;4.80;;
485;SDS011;229;48.734;9.340;2022-09-16T15:46:23;6.30;;;5.13;;
485;SDS011;229;48.734;9.340;2022-09-16T15:48:51;7.80;;;5.40;;
485;SDS011;229;48.734;9.340;2022-09-16T15:51:20;8.40;;;5.20;;
485;SDS011;229;48.734;9.340;2022-09-16T15:53:50;5.38;;;5.05;;
485;SDS011;229;48.734;9.340;2022-09-16T15:56:21;5.18;;;4.40;;
485;SDS011;229;48.734;9.340;2022-09-16T15:58:52;5.05;;;4.75;;
485;SDS011;229;48.734;9.340;2022-09-16T16:01:20;5.25;;;4.95;;
485;SDS011;229;48.734;9.340;2022-09-16T16:04:01;6.47;;;4.85;;
485;SDS011;229;48.734;9.340;2022-09-16T16:06:49;5.57;;;5.00;;
485;SDS011;229;48.734;9.340;2022-09-16T16:12:04;7.32;;;5.63;;
485;SDS011;229;48.734;9.340;2022-09-16T16:14:32;9.52;;;5.07;;
485;SDS011;229;48.734;9.340;2022-09-16T16:17:00;7.07;;;4.85;;
485;SDS011;229;48.734;9.340;2022-09-16T16:19:28;12.13;;;5.85;;